Time;durP1;ratioP1;P1;durP2;ratioP2;P2;SDS_P1;SDS_P2;PMS_P1;PMS_P2;Temp;Humidity;BMP_temperature;BMP_pressure;BME280_temperature;BME280_humidity;BME280_pressure;Samples;Min_cycle;Max_cycle;Signal;HPM_P1;HPM_P2
2022/01/11 00:00:16;;;;;;;30.88;21.63;;;9.10;88.00;;;;;;4955805;28;20031;-76
2022/01/11 00:02:44;;;;;;;28.85;20.50;;;9.10;87.90;;;;;;4954252;28;20090;-76
2022/01/11 00:08:09;;;;;;;28.85;21.65;;;9.10;87.90;;;;;;4886362;28;20039;-76
2022/01/11 00:10:47;;;;;;;29.70;21.38;;;9.10;87.90;;;;;;4955472;28;20051;-77
2022/01/11 00:13:15;;;;;;;29.42;21.45;;;9.10;87.80;;;;;;4955670;28;20471;-76
2022/01/11 00:15:40;;;;;;;31.13;21.45;;;9.10;87.80;;;;;;4954188;29;20058;-77
2022/01/11 00:18:06;;;;;;;29.35;20.55;;;9.10;87.80;;;;;;4955784;28;20688;-76
2022/01/11 00:20:32;;;;;;;30.25;21.00;;;9.10;87.80;;;;;;4942583;28;20027;-77
2022/01/11 00:25:23;;;;;;;28.55;21.25;;;9.10;87.70;;;;;;4954927;29;20031;-76
2022/01/11 00:27:49;;;;;;;27.02;20.70;;;9.10;87.70;;;;;;4955043;29;20030;-77
2022/01/11 00:30:15;;;;;;;27.98;20.73;;;9.10;87.70;;;;;;4953774;29;20175;-76
2022/01/11 00:32:46;;;;;;;28.42;20.25;;;9.10;87.60;;;;;;4955058;28;20414;-76
2022/01/11 00:35:15;;;;;;;25.52;19.00;;;9.10;87.60;;;;;;4955292;28;20099;-76
2022/01/11 00:37:41;;;;;;;26.08;19.52;;;9.10;87.60;;;;;;4953848;29;20035;-76
2022/01/11 00:40:08;;;;;;;26.48;19.75;;;9.10;87.60;;;;;;4955177;28;20071;-76
2022/01/11 00:42:34;;;;;;;26.20;19.45;;;9.10;87.60;;;;;;4954827;28;20046;-76
2022/01/11 00:45:02;;;;;;;26.13;19.65;;;9.10;87.60;;;;;;4953729;29;20098;-76
2022/01/11 00:47:27;;;;;;;25.70;19.13;;;9.10;87.50;;;;;;4953627;29;20479;-77
2022/01/11 00:49:54;;;;;;;24.02;18.40;;;9.10;87.40;;;;;;4954976;29;20034;-76
2022/01/11 00:52:19;;;;;;;24.67;18.38;;;9.10;87.40;;;;;;4957155;23;20075;-75
2022/01/11 00:54:45;;;;;;;23.75;18.67;;;9.10;87.40;;;;;;4934766;29;20066;-75
2022/01/11 00:57:10;;;;;;;24.58;18.55;;;9.10;87.40;;;;;;4934749;29;20028;-76
2022/01/11 00:59:36;;;;;;;24.92;19.00;;;9.10;87.30;;;;;;4934519;29;20031;-75
2022/01/11 01:02:02;;;;;;;22.67;17.88;;;9.10;87.40;;;;;;4934455;29;20058;-75
2022/01/11 01:04:27;;;;;;;24.02;18.27;;;9.10;87.30;;;;;;4934582;29;20499;-75
2022/01/11 01:06:53;;;;;;;23.15;17.85;;;9.10;87.40;;;;;;4934569;29;20126;-75
2022/01/11 01:09:18;;;;;;;23.27;18.05;;;9.10;87.40;;;;;;4934441;29;20071;-75
2022/01/11 01:11:45;;;;;;;22.65;17.67;;;9.10;87.30;;;;;;4934308;29;20124;-75
2022/01/11 01:14:11;;;;;;;22.67;17.38;;;9.10;87.40;;;;;;4935618;29;20042;-76
2022/01/11 01:16:38;;;;;;;21.83;17.42;;;9.10;87.40;;;;;;4934420;29;20056;-75
2022/01/11 01:19:03;;;;;;;21.50;17.10;;;9.10;87.30;;;;;;4934332;29;20035;-75
2022/01/11 01:21:36;;;;;;;21.48;16.95;;;9.10;87.20;;;;;;4934149;29;20028;-75
2022/01/11 01:24:02;;;;;;;22.73;17.52;;;9.10;87.20;;;;;;4935582;29;20028;-75
2022/01/11 01:26:28;;;;;;;21.63;17.20;;;9.10;87.20;;;;;;4934292;29;20032;-75
2022/01/11 01:28:53;;;;;;;21.17;17.50;;;9.10;87.20;;;;;;4935408;29;20031;-73
2022/01/11 01:31:19;;;;;;;22.45;18.00;;;9.10;87.00;;;;;;4933812;29;20171;-75
2022/01/11 01:33:45;;;;;;;21.63;17.13;;;9.10;87.10;;;;;;4934259;29;20377;-75
2022/01/11 01:36:11;;;;;;;22.05;17.50;;;9.10;87.10;;;;;;4934205;29;20028;-75
2022/01/11 01:38:38;;;;;;;21.13;17.02;;;9.10;87.10;;;;;;4935282;29;20052;-75
2022/01/11 01:41:13;;;;;;;20.77;17.45;;;9.10;87.10;;;;;;4934978;29;20020;-75
2022/01/11 01:43:39;;;;;;;21.17;17.60;;;9.10;87.10;;;;;;4934164;29;20059;-75
2022/01/11 01:46:05;;;;;;;21.23;17.30;;;9.10;87.10;;;;;;4935200;29;20052;-77
2022/01/11 01:48:31;;;;;;;21.38;17.50;;;9.10;87.10;;;;;;4935141;29;20510;-75
2022/01/11 01:50:57;;;;;;;22.58;18.17;;;9.10;86.90;;;;;;4933751;29;20059;-75
2022/01/11 01:53:22;;;;;;;20.52;17.15;;;9.10;86.90;;;;;;4953940;29;20031;-75
2022/01/11 01:55:48;;;;;;;18.85;16.13;;;9.10;87.00;;;;;;4937121;29;20447;-75
2022/01/11 01:58:15;;;;;;;23.67;18.50;;;9.10;87.00;;;;;;4954223;29;20023;-75
2022/01/11 02:00:46;;;;;;;20.60;16.83;;;9.10;87.00;;;;;;4936826;29;20038;-75
2022/01/11 02:03:14;;;;;;;21.27;17.23;;;9.10;87.00;;;;;;4937020;29;20027;-75
2022/01/11 02:05:42;;;;;;;20.73;16.65;;;9.10;86.90;;;;;;4937003;29;20114;-75
2022/01/11 02:08:08;;;;;;;19.90;16.92;;;9.10;87.50;;;;;;4954194;29;20035;-75
2022/01/11 02:10:38;;;;;;;21.20;17.50;;;9.10;86.90;;;;;;4953901;29;20027;-75
2022/01/11 02:13:05;;;;;;;19.83;16.83;;;9.10;86.90;;;;;;4954026;29;20058;-75
2022/01/11 02:15:31;;;;;;;19.80;16.88;;;9.10;86.90;;;;;;4954077;29;20030;-76
2022/01/11 02:18:18;;;;;;;20.20;16.88;;;9.10;86.90;;;;;;4954062;29;20027;-77
2022/01/11 02:20:45;;;;;;;20.58;17.08;;;9.10;86.80;;;;;;4935008;29;20035;-78
2022/01/11 02:23:12;;;;;;;20.50;16.02;;;9.10;86.70;;;;;;4934782;29;20032;-77
2022/01/11 02:25:38;;;;;;;21.55;16.88;;;9.10;86.70;;;;;;4934957;29;20056;-75
2022/01/11 02:28:12;;;;;;;19.25;16.23;;;9.10;86.80;;;;;;4917890;29;20502;-75
2022/01/11 02:30:38;;;;;;;18.08;15.57;;;9.10;86.70;;;;;;4919456;29;20039;-75
2022/01/11 02:33:09;;;;;;;19.00;16.40;;;9.10;86.70;;;;;;4928926;29;20159;-75
2022/01/11 02:35:34;;;;;;;19.67;16.25;;;9.10;86.70;;;;;;4940515;29;20027;-75
2022/01/11 02:38:00;;;;;;;19.13;16.50;;;9.10;86.60;;;;;;4957843;29;20031;-75
2022/01/11 02:40:26;;;;;;;18.98;16.17;;;9.10;86.70;;;;;;4957445;29;20028;-75
2022/01/11 02:42:51;;;;;;;19.10;15.68;;;9.10;86.70;;;;;;4940106;29;20035;-75
2022/01/11 02:45:20;;;;;;;17.83;15.75;;;9.00;86.60;;;;;;4957413;29;20510;-75
2022/01/11 02:47:47;;;;;;;19.83;16.13;;;9.10;86.60;;;;;;4940582;29;20034;-75
2022/01/11 02:50:15;;;;;;;18.85;15.85;;;9.00;86.60;;;;;;4940181;29;20082;-75
2022/01/11 02:52:40;;;;;;;18.58;16.05;;;9.00;86.50;;;;;;4939725;29;20473;-76
2022/01/11 02:55:10;;;;;;;18.35;15.93;;;9.10;86.50;;;;;;4957326;29;20027;-75
2022/01/11 02:57:36;;;;;;;19.95;16.83;;;9.00;86.40;;;;;;4940159;29;20030;-76
2022/01/11 03:00:05;;;;;;;18.83;16.20;;;9.00;86.40;;;;;;4940021;29;20499;-75
2022/01/11 03:02:30;;;;;;;19.50;16.25;;;9.10;86.50;;;;;;4952957;29;20054;-75
2022/01/11 03:04:56;;;;;;;18.83;16.27;;;9.00;86.30;;;;;;4956927;29;20486;-76
2022/01/11 03:07:22;;;;;;;19.58;16.67;;;9.10;86.40;;;;;;4957007;29;20486;-75
2022/01/11 03:10:01;;;;;;;18.75;15.93;;;9.10;86.30;;;;;;4957090;29;20030;-74
2022/01/11 03:12:27;;;;;;;19.63;16.88;;;9.00;86.20;;;;;;4939548;29;20371;-75
2022/01/11 03:14:53;;;;;;;18.95;16.83;;;9.00;86.20;;;;;;4939860;29;20034;-75
2022/01/11 03:17:18;;;;;;;21.23;17.23;;;9.10;86.20;;;;;;4939749;29;20035;-75
2022/01/11 03:19:44;;;;;;;18.60;16.58;;;9.10;86.10;;;;;;4956787;29;20019;-75
2022/01/11 03:22:09;;;;;;;19.88;16.67;;;9.00;86.00;;;;;;4939407;29;20126;-75
2022/01/11 03:24:35;;;;;;;19.95;16.90;;;9.10;86.20;;;;;;4939763;29;20118;-75
2022/01/11 03:27:00;;;;;;;19.13;16.70;;;9.00;86.00;;;;;;4956707;29;20031;-75
2022/01/11 03:29:26;;;;;;;20.17;17.58;;;9.00;86.00;;;;;;4939417;29;20118;-75
2022/01/11 03:31:51;;;;;;;20.85;17.23;;;9.00;86.00;;;;;;4939196;29;20027;-75
2022/01/11 03:34:19;;;;;;;19.83;17.17;;;9.00;86.10;;;;;;4956627;29;20082;-75
2022/01/11 03:36:45;;;;;;;18.92;16.50;;;9.00;86.00;;;;;;4939504;29;20027;-76
2022/01/11 03:39:11;;;;;;;19.05;17.00;;;9.00;86.00;;;;;;4956440;29;20586;-76
2022/01/11 03:41:37;;;;;;;19.08;16.90;;;9.00;86.00;;;;;;4955373;28;20055;-76
2022/01/11 03:44:03;;;;;;;18.60;16.52;;;9.00;86.00;;;;;;4956517;29;20054;-75
2022/01/11 03:46:29;;;;;;;20.27;17.50;;;9.00;86.00;;;;;;4956316;29;20561;-77
2022/01/11 03:48:54;;;;;;;20.17;16.58;;;9.00;85.90;;;;;;4939062;29;20129;-75
2022/01/11 03:51:20;;;;;;;18.90;16.52;;;9.10;85.90;;;;;;4955921;28;20525;-75
2022/01/11 03:56:40;;;;;;;19.92;16.83;;;9.00;85.80;;;;;;4951617;29;20238;-75
2022/01/11 03:59:07;;;;;;;19.05;16.92;;;9.10;85.90;;;;;;4938210;29;20067;-75
2022/01/11 04:01:34;;;;;;;19.63;16.77;;;9.00;85.80;;;;;;4938532;29;20027;-75
2022/01/11 04:03:59;;;;;;;19.08;16.98;;;9.00;85.70;;;;;;4938858;29;20517;-72
2022/01/11 04:06:26;;;;;;;19.90;16.77;;;9.00;85.70;;;;;;4956095;29;20031;-75
2022/01/11 04:08:52;;;;;;;21.13;17.52;;;9.00;85.70;;;;;;4938763;29;20027;-75
2022/01/11 04:11:18;;;;;;;19.67;17.08;;;9.00;85.70;;;;;;4938435;29;20109;-75
2022/01/11 04:13:44;;;;;;;19.55;17.10;;;9.00;85.60;;;;;;4938687;29;20086;-76
2022/01/11 04:16:09;;;;;;;18.65;16.65;;;9.00;85.60;;;;;;4955881;29;20150;-75
2022/01/11 04:18:35;;;;;;;17.88;15.98;;;9.00;85.70;;;;;;4938504;29;20487;-75
2022/01/11 04:21:02;;;;;;;18.02;16.13;;;9.00;85.60;;;;;;4955387;29;20054;-75
2022/01/11 04:23:27;;;;;;;19.63;17.00;;;9.00;85.60;;;;;;4955721;29;20435;-75
2022/01/11 04:25:53;;;;;;;19.90;17.33;;;9.00;85.60;;;;;;4938443;29;20019;-75
2022/01/11 04:28:19;;;;;;;18.80;16.77;;;9.00;85.60;;;;;;4955568;29;20457;-75
2022/01/11 04:30:44;;;;;;;20.70;17.80;;;9.00;85.60;;;;;;4938172;29;20031;-75
2022/01/11 04:33:10;;;;;;;20.10;17.38;;;9.00;85.70;;;;;;4938205;29;20031;-75
2022/01/11 04:35:35;;;;;;;19.15;17.08;;;9.00;85.50;;;;;;4938233;29;20055;-76
2022/01/11 04:38:01;;;;;;;19.80;17.45;;;9.00;85.50;;;;;;4955427;29;20030;-74
2022/01/11 04:40:27;;;;;;;21.60;17.92;;;9.00;85.40;;;;;;4955212;29;20023;-75
2022/01/11 04:42:52;;;;;;;19.38;17.33;;;9.00;85.30;;;;;;4937996;29;20035;-75
2022/01/11 04:45:18;;;;;;;21.10;18.13;;;9.00;85.40;;;;;;4955380;29;20107;-75
2022/01/11 04:47:45;;;;;;;19.48;17.40;;;9.00;85.40;;;;;;4955258;29;20019;-75
2022/01/11 04:50:11;;;;;;;21.33;18.02;;;9.00;85.50;;;;;;4955099;29;20070;-75
2022/01/11 04:52:37;;;;;;;19.55;16.95;;;9.00;85.40;;;;;;4937344;29;20483;-78
2022/01/11 04:55:04;;;;;;;20.77;18.30;;;9.00;85.30;;;;;;4955222;29;20031;-75
2022/01/11 04:57:29;;;;;;;21.45;17.75;;;9.00;85.40;;;;;;4937846;29;20565;-75
2022/01/11 04:59:54;;;;;;;20.00;17.67;;;9.00;85.40;;;;;;4937866;29;20171;-75
2022/01/11 05:02:20;;;;;;;20.90;17.27;;;9.00;85.20;;;;;;4936009;29;20031;-75
2022/01/11 05:04:46;;;;;;;20.38;17.42;;;9.00;85.00;;;;;;4945515;29;20027;-75
2022/01/11 05:07:11;;;;;;;22.27;18.25;;;9.00;85.00;;;;;;4918778;29;20122;-76
2022/01/11 05:09:37;;;;;;;19.75;17.35;;;9.00;85.10;;;;;;4935763;29;20039;-75
2022/01/11 05:12:02;;;;;;;20.00;17.35;;;9.00;85.20;;;;;;4935361;29;20032;-75
2022/01/11 05:14:28;;;;;;;22.23;18.27;;;9.00;85.10;;;;;;4918683;29;20439;-75
2022/01/11 05:16:53;;;;;;;20.92;17.55;;;9.00;85.20;;;;;;4918638;29;20028;-74
2022/01/11 05:19:19;;;;;;;22.48;17.50;;;9.00;85.30;;;;;;4935446;29;20059;-75
2022/01/11 05:21:45;;;;;;;21.50;17.52;;;8.90;85.20;;;;;;4918293;29;20499;-75
2022/01/11 05:24:11;;;;;;;19.88;17.10;;;9.00;85.30;;;;;;4918484;29;20035;-76
2022/01/11 05:26:39;;;;;;;20.60;16.90;;;9.00;85.70;;;;;;4935315;29;20031;-75
2022/01/11 05:29:05;;;;;;;20.58;17.27;;;8.90;85.10;;;;;;4935433;29;20024;-75
2022/01/11 05:31:33;;;;;;;19.58;16.65;;;9.00;85.20;;;;;;4935068;29;20032;-75
2022/01/11 05:33:58;;;;;;;20.95;16.85;;;9.00;85.20;;;;;;4935406;29;20028;-75
2022/01/11 05:36:24;;;;;;;19.00;16.75;;;8.90;85.10;;;;;;4935368;29;20149;-75
2022/01/11 05:38:49;;;;;;;20.88;17.35;;;8.90;85.20;;;;;;4935267;29;20394;-75
2022/01/11 05:41:15;;;;;;;18.40;16.35;;;8.90;85.20;;;;;;4935323;29;20051;-74
2022/01/11 05:43:40;;;;;;;19.52;16.27;;;8.90;85.10;;;;;;4932187;29;20042;-75
2022/01/11 05:46:06;;;;;;;19.10;16.20;;;8.90;85.10;;;;;;4915828;29;20031;-76
2022/01/11 05:48:32;;;;;;;19.27;15.70;;;9.00;85.10;;;;;;4932373;29;20810;-75
2022/01/11 05:50:59;;;;;;;20.55;17.25;;;8.90;85.10;;;;;;4932299;29;20051;-75
2022/01/11 05:53:25;;;;;;;19.40;17.25;;;8.90;85.10;;;;;;4914959;29;20093;-75
2022/01/11 05:55:50;;;;;;;17.75;15.63;;;8.90;77.60;;;;;;4932185;29;20119;-75
2022/01/11 05:58:16;;;;;;;18.83;16.92;;;8.70;71.20;;;;;;4912164;29;20503;-76
2022/01/11 06:00:41;;;;;;;18.65;16.65;;;8.60;74.10;;;;;;4948952;28;20019;-75
2022/01/11 06:03:07;;;;;;;19.33;17.25;;;8.60;77.10;;;;;;4954554;28;20130;-73
2022/01/11 06:05:37;;;;;;;20.88;18.02;;;8.70;79.00;;;;;;4930335;29;20031;-74
2022/01/11 06:08:03;;;;;;;21.08;18.77;;;8.70;79.70;;;;;;4954663;28;20508;-76
2022/01/11 06:10:29;;;;;;;21.70;19.15;;;8.70;80.80;;;;;;4958070;28;20073;-75
2022/01/11 06:12:54;;;;;;;19.92;17.83;;;8.70;81.40;;;;;;4975905;28;20054;-79
2022/01/11 06:15:20;;;;;;;20.90;18.20;;;8.70;81.70;;;;;;4976011;28;20031;-75
2022/01/11 06:17:45;;;;;;;21.25;18.70;;;8.80;82.10;;;;;;4974824;28;20030;-74
2022/01/11 06:20:11;;;;;;;20.27;18.17;;;8.80;82.10;;;;;;4958156;28;20085;-78
2022/01/11 06:22:37;;;;;;;20.08;17.98;;;8.80;82.30;;;;;;4975287;28;20023;-78
2022/01/11 06:25:04;;;;;;;20.38;18.25;;;8.80;82.50;;;;;;4975162;28;20453;-75
2022/01/11 06:27:32;;;;;;;21.50;18.60;;;8.80;82.60;;;;;;4974880;28;20023;-75
2022/01/11 06:29:57;;;;;;;19.58;17.48;;;8.80;80.50;;;;;;4925292;29;20035;-74
2022/01/11 06:32:23;;;;;;;20.70;17.80;;;8.80;80.90;;;;;;4936899;29;20475;-75
2022/01/11 06:34:48;;;;;;;21.05;18.08;;;8.80;81.20;;;;;;4955420;29;20027;-74
2022/01/11 06:37:14;;;;;;;19.73;17.63;;;8.80;81.80;;;;;;4937783;29;20027;-76
2022/01/11 06:39:39;;;;;;;18.88;16.83;;;8.80;82.60;;;;;;4937904;29;20450;-76
2022/01/11 06:42:05;;;;;;;19.05;17.05;;;8.80;82.30;;;;;;4955099;29;20025;-75
2022/01/11 06:44:32;;;;;;;19.85;17.30;;;8.80;82.50;;;;;;4937493;29;20398;-77
2022/01/11 06:46:57;;;;;;;19.17;16.65;;;8.80;82.70;;;;;;4955015;29;20051;-76
2022/01/11 06:49:23;;;;;;;18.98;16.98;;;8.80;82.80;;;;;;4951439;28;20039;-75
2022/01/11 06:51:49;;;;;;;18.88;16.42;;;8.80;83.00;;;;;;4937189;29;20078;-76
2022/01/11 06:54:14;;;;;;;18.00;16.10;;;8.80;83.00;;;;;;4938032;29;20031;-75
2022/01/11 06:56:40;;;;;;;19.40;16.98;;;8.80;83.10;;;;;;4937360;29;20023;-75
2022/01/11 06:59:05;;;;;;;18.60;15.45;;;8.80;83.10;;;;;;4937876;29;20027;-75
2022/01/11 07:01:32;;;;;;;17.90;16.05;;;8.80;83.10;;;;;;4954206;29;20057;-76
2022/01/11 07:03:58;;;;;;;18.45;16.55;;;8.80;83.20;;;;;;4955266;29;20020;-77
2022/01/11 07:06:23;;;;;;;17.58;15.77;;;8.80;83.20;;;;;;4937011;29;20083;-75
2022/01/11 07:08:49;;;;;;;17.42;15.60;;;8.80;83.20;;;;;;4937348;29;20118;-75
2022/01/11 07:11:14;;;;;;;17.70;15.88;;;8.80;83.30;;;;;;4937054;29;20038;-75
2022/01/11 07:13:40;;;;;;;17.48;15.68;;;8.80;83.40;;;;;;4954741;29;20089;-75
2022/01/11 07:16:05;;;;;;;17.30;15.50;;;8.80;83.40;;;;;;4954686;28;20027;-73
2022/01/11 07:18:31;;;;;;;17.67;15.63;;;8.80;83.40;;;;;;4954655;29;20136;-75
2022/01/11 07:20:56;;;;;;;17.55;15.18;;;8.80;83.60;;;;;;4953979;29;20066;-76
2022/01/11 07:23:22;;;;;;;16.85;15.05;;;8.80;83.40;;;;;;4954268;29;20028;-75
2022/01/11 07:25:48;;;;;;;17.92;16.02;;;8.80;83.50;;;;;;4954049;29;20030;-74
2022/01/11 07:28:15;;;;;;;17.08;14.90;;;8.80;83.50;;;;;;4954412;29;20050;-76
2022/01/11 07:30:41;;;;;;;17.70;14.65;;;8.90;83.50;;;;;;4953975;29;20035;-76
2022/01/11 07:33:07;;;;;;;17.27;15.48;;;8.80;83.50;;;;;;4936452;29;20031;-75
2022/01/11 07:35:33;;;;;;;16.92;14.98;;;8.80;83.50;;;;;;4953985;29;20035;-75
2022/01/11 07:37:59;;;;;;;16.40;14.63;;;8.80;83.60;;;;;;4953875;29;20024;-75
2022/01/11 07:40:24;;;;;;;16.65;14.80;;;8.80;83.50;;;;;;4953967;29;20034;-74
2022/01/11 07:42:50;;;;;;;16.75;14.48;;;8.80;83.50;;;;;;4936356;29;20650;-75
2022/01/11 07:45:16;;;;;;;15.77;14.15;;;8.80;83.50;;;;;;4935409;29;20090;-73
2022/01/11 07:47:41;;;;;;;16.50;14.80;;;8.80;83.50;;;;;;4951915;29;20378;-76
2022/01/11 07:50:08;;;;;;;24.33;15.45;;;8.90;83.60;;;;;;4952313;29;20034;-74
2022/01/11 07:52:34;;;;;;;18.55;14.68;;;8.90;81.00;;;;;;4951795;29;20118;-73
2022/01/11 07:55:00;;;;;;;16.67;14.35;;;8.90;80.90;;;;;;4952914;29;20618;-74
2022/01/11 07:57:26;;;;;;;17.38;14.93;;;8.90;81.00;;;;;;4934971;29;20110;-75
2022/01/11 07:59:52;;;;;;;16.58;14.77;;;8.90;81.50;;;;;;4951871;29;20566;-76
2022/01/11 08:02:17;;;;;;;20.60;14.85;;;9.00;80.30;;;;;;4934805;29;20019;-75
2022/01/11 08:04:43;;;;;;;19.45;14.85;;;8.90;79.50;;;;;;4935108;29;20784;-74
2022/01/11 08:07:10;;;;;;;17.42;14.68;;;9.00;79.60;;;;;;4934911;29;20033;-73
2022/01/11 08:09:36;;;;;;;17.58;15.05;;;9.00;79.90;;;;;;4934941;29;20023;-74
2022/01/11 08:12:02;;;;;;;15.98;14.10;;;9.00;80.10;;;;;;4934594;29;20016;-74
2022/01/11 08:14:29;;;;;;;17.42;14.07;;;9.00;80.40;;;;;;4952136;29;20031;-76
2022/01/11 08:16:55;;;;;;;16.17;14.20;;;9.00;80.40;;;;;;4934981;29;20015;-75
2022/01/11 08:19:24;;;;;;;16.13;14.32;;;9.00;80.40;;;;;;4952011;29;20027;-75
2022/01/11 08:21:51;;;;;;;15.88;13.77;;;9.10;80.50;;;;;;4934560;29;20026;-74
2022/01/11 08:24:18;;;;;;;15.75;14.02;;;9.10;80.40;;;;;;4951817;29;20109;-76
2022/01/11 08:26:44;;;;;;;15.10;13.45;;;9.20;80.50;;;;;;4934652;29;20023;-77
2022/01/11 08:29:09;;;;;;;15.98;14.02;;;9.20;80.40;;;;;;4933693;29;20031;-78
2022/01/11 08:31:35;;;;;;;16.00;14.30;;;9.30;80.50;;;;;;4951488;29;20019;-75
2022/01/11 08:34:00;;;;;;;15.88;13.98;;;9.30;80.40;;;;;;4951450;29;20062;-76
2022/01/11 08:36:26;;;;;;;15.65;13.68;;;9.30;80.40;;;;;;4951176;29;20051;-77
2022/01/11 08:38:51;;;;;;;15.65;13.70;;;9.40;80.90;;;;;;4934350;29;20106;-73
2022/01/11 08:41:22;;;;;;;15.18;13.43;;;9.40;80.20;;;;;;4934326;29;20471;-74
2022/01/11 08:43:47;;;;;;;15.38;13.68;;;9.50;80.30;;;;;;4951749;29;20015;-74
2022/01/11 08:46:16;;;;;;;15.38;13.77;;;9.50;80.10;;;;;;4934367;29;20019;-74
2022/01/11 08:48:41;;;;;;;15.32;13.05;;;9.50;80.10;;;;;;4934341;29;20023;-75
2022/01/11 08:51:07;;;;;;;15.45;13.52;;;9.50;80.00;;;;;;4951041;29;20037;-73
2022/01/11 08:53:32;;;;;;;14.90;12.75;;;9.60;80.10;;;;;;4934413;29;20038;-74
2022/01/11 08:55:58;;;;;;;15.25;13.65;;;9.60;80.00;;;;;;4934183;29;20383;-78
2022/01/11 08:58:23;;;;;;;15.45;13.23;;;9.60;80.00;;;;;;4934264;29;20023;-74
2022/01/11 09:00:51;;;;;;;14.63;13.13;;;9.70;79.80;;;;;;4950025;29;20086;-75
2022/01/11 09:03:18;;;;;;;15.75;13.07;;;9.70;79.80;;;;;;4951016;29;20051;-76
2022/01/11 09:05:43;;;;;;;15.30;12.65;;;9.70;79.80;;;;;;4933562;29;20030;-74
2022/01/11 09:08:12;;;;;;;14.95;13.35;;;9.80;79.70;;;;;;4933751;29;20023;-74
2022/01/11 09:10:37;;;;;;;14.50;12.73;;;9.80;79.70;;;;;;4950857;29;20075;-77
2022/01/11 09:13:03;;;;;;;14.35;12.85;;;9.80;79.60;;;;;;4951405;29;20024;-76
2022/01/11 09:15:29;;;;;;;16.63;12.70;;;9.80;79.40;;;;;;4950701;29;20457;-75
2022/01/11 09:17:55;;;;;;;15.50;13.25;;;9.90;79.60;;;;;;4933820;29;20030;-74
2022/01/11 09:20:20;;;;;;;14.90;13.07;;;9.90;79.60;;;;;;4950338;29;20025;-74
2022/01/11 09:22:46;;;;;;;13.68;12.02;;;9.90;79.90;;;;;;4950403;29;20023;-76
2022/01/11 09:25:12;;;;;;;15.07;13.35;;;10.00;79.80;;;;;;4933434;29;20035;-73
2022/01/11 09:27:38;;;;;;;14.77;13.02;;;10.00;79.70;;;;;;4950646;29;20103;-75
2022/01/11 09:30:08;;;;;;;15.15;12.85;;;10.00;79.60;;;;;;4950347;29;20114;-73
2022/01/11 09:32:34;;;;;;;13.93;12.48;;;10.00;79.60;;;;;;4932760;29;20093;-74
2022/01/11 09:35:00;;;;;;;14.60;12.77;;;10.00;79.20;;;;;;4950216;29;20019;-74
2022/01/11 09:37:26;;;;;;;13.75;12.20;;;10.10;79.20;;;;;;4950319;29;20023;-73
2022/01/11 09:39:51;;;;;;;15.02;12.52;;;10.10;79.50;;;;;;4932400;29;20394;-75
2022/01/11 09:42:18;;;;;;;15.07;12.93;;;10.10;79.20;;;;;;4950113;29;20399;-76
2022/01/11 09:44:43;;;;;;;14.73;12.68;;;10.10;79.00;;;;;;4933289;29;20030;-74
2022/01/11 09:47:12;;;;;;;15.35;13.18;;;10.10;79.20;;;;;;4950476;29;20027;-77
2022/01/11 09:49:38;;;;;;;18.00;13.15;;;10.10;79.00;;;;;;4933326;29;20027;-75
2022/01/11 09:52:07;;;;;;;16.33;12.38;;;10.20;79.10;;;;;;4950015;28;20061;-76
2022/01/11 09:54:43;;;;;;;14.73;12.80;;;10.20;78.90;;;;;;4950585;29;20098;-75
2022/01/11 09:57:09;;;;;;;14.27;12.75;;;10.20;78.80;;;;;;4933190;29;20103;-76
2022/01/11 09:59:35;;;;;;;16.40;12.93;;;10.20;78.80;;;;;;4932886;29;20027;-74
2022/01/11 10:02:02;;;;;;;16.35;14.05;;;10.20;79.00;;;;;;4933139;29;20398;-76
2022/01/11 10:04:31;;;;;;;16.40;12.80;;;10.20;79.60;;;;;;4950655;29;20062;-76
2022/01/11 10:07:00;;;;;;;16.48;13.55;;;10.20;79.50;;;;;;4933213;29;20138;-74
2022/01/11 10:09:29;;;;;;;16.73;13.27;;;10.30;78.70;;;;;;4933324;29;20031;-76
2022/01/11 10:11:57;;;;;;;17.95;13.85;;;10.30;78.70;;;;;;4933580;29;20082;-75
2022/01/11 10:14:35;;;;;;;16.45;13.70;;;10.30;78.70;;;;;;4933306;29;20026;-77
2022/01/11 10:17:09;;;;;;;16.45;13.68;;;10.30;78.70;;;;;;4950351;29;20027;-75
2022/01/11 10:19:37;;;;;;;16.83;13.00;;;10.30;78.70;;;;;;4950046;29;20047;-75
2022/01/11 10:22:06;;;;;;;17.38;13.68;;;10.30;78.80;;;;;;4949559;29;20023;-76
2022/01/11 10:24:47;;;;;;;18.55;14.88;;;10.40;78.60;;;;;;4932666;29;20035;-75
2022/01/11 10:27:15;;;;;;;18.73;14.25;;;10.40;78.70;;;;;;4933385;29;20054;-75
2022/01/11 10:29:44;;;;;;;17.33;13.65;;;10.40;78.70;;;;;;4950159;29;20032;-75
2022/01/11 10:32:18;;;;;;;18.80;14.63;;;10.40;78.60;;;;;;4949889;29;20023;-76
2022/01/11 10:34:48;;;;;;;18.98;14.30;;;10.40;78.80;;;;;;4932742;29;20023;-78
2022/01/11 10:37:15;;;;;;;17.35;13.43;;;10.50;78.80;;;;;;4950199;29;20019;-75
2022/01/11 10:39:44;;;;;;;18.52;14.48;;;10.40;79.30;;;;;;4950712;29;20027;-73
2022/01/11 10:42:48;;;;;;;17.55;13.95;;;10.50;79.10;;;;;;4930431;29;20023;-74
2022/01/11 10:45:33;;;;;;;18.35;14.48;;;10.50;78.60;;;;;;4898269;29;20098;-74
2022/01/11 10:48:07;;;;;;;18.25;14.18;;;10.50;78.90;;;;;;4950550;29;20030;-75
2022/01/11 10:50:40;;;;;;;18.55;14.20;;;10.50;78.80;;;;;;4951499;28;20019;-75
2022/01/11 10:53:25;;;;;;;18.77;13.57;;;10.60;78.60;;;;;;4954255;29;20034;-75
2022/01/11 10:55:54;;;;;;;19.42;14.23;;;10.60;78.20;;;;;;4954111;29;20049;-76
2022/01/11 10:58:22;;;;;;;20.23;13.95;;;10.60;78.60;;;;;;4954197;29;20050;-74
2022/01/11 11:00:52;;;;;;;17.30;13.75;;;10.60;78.50;;;;;;4933553;28;20035;-75
2022/01/11 11:03:26;;;;;;;18.48;14.75;;;10.60;78.40;;;;;;4940970;29;20031;-79
2022/01/11 11:06:01;;;;;;;16.95;13.75;;;10.60;78.10;;;;;;4934360;29;20035;-74
2022/01/11 11:08:30;;;;;;;16.08;13.25;;;10.60;78.10;;;;;;4953822;29;20100;-74
2022/01/11 11:10:56;;;;;;;18.55;13.65;;;10.60;78.10;;;;;;4953758;29;20015;-76
2022/01/11 11:13:25;;;;;;;19.90;13.27;;;10.60;77.50;;;;;;4953542;29;20892;-76
2022/01/11 11:15:54;;;;;;;18.75;14.00;;;10.60;77.80;;;;;;4953830;29;20035;-75
2022/01/11 11:18:33;;;;;;;18.67;14.00;;;10.60;77.30;;;;;;4936463;29;20026;-76
2022/01/11 11:21:13;;;;;;;17.23;13.52;;;10.50;77.20;;;;;;4936384;29;20549;-75
2022/01/11 11:23:38;;;;;;;17.98;13.70;;;10.60;77.20;;;;;;4953470;29;20028;-76
2022/01/11 11:26:04;;;;;;;18.05;13.10;;;10.60;77.40;;;;;;4953515;29;20027;-78
2022/01/11 11:28:30;;;;;;;17.02;13.18;;;10.60;76.70;;;;;;4953326;29;20038;-74
2022/01/11 11:30:56;;;;;;;17.55;12.98;;;10.60;76.80;;;;;;4952747;29;20094;-76
2022/01/11 11:33:23;;;;;;;17.00;12.43;;;10.60;77.10;;;;;;4953425;29;20031;-75
2022/01/11 11:35:50;;;;;;;17.58;13.13;;;10.60;77.10;;;;;;4935961;29;20098;-77
2022/01/11 11:38:16;;;;;;;17.05;12.88;;;10.60;77.20;;;;;;4953162;29;20019;-75
2022/01/11 11:40:43;;;;;;;16.42;12.70;;;10.60;77.30;;;;;;4952975;29;20035;-74
2022/01/11 11:43:11;;;;;;;14.77;11.73;;;10.60;77.20;;;;;;4936235;29;20050;-76
2022/01/11 11:45:38;;;;;;;15.13;12.05;;;10.60;77.30;;;;;;4953485;29;20031;-74
2022/01/11 11:48:10;;;;;;;15.07;12.18;;;10.60;77.30;;;;;;4936109;29;20054;-74
2022/01/11 11:51:00;;;;;;;14.93;11.80;;;10.60;77.30;;;;;;4953096;29;20058;-74
2022/01/11 11:53:35;;;;;;;14.95;10.82;;;10.60;77.30;;;;;;4935252;29;20098;-76
2022/01/11 11:56:22;;;;;;;13.68;10.52;;;10.60;77.30;;;;;;4953074;29;20058;-75
2022/01/11 11:58:56;;;;;;;15.13;11.43;;;10.70;77.40;;;;;;4953456;29;20074;-75
2022/01/11 12:01:41;;;;;;;13.88;10.35;;;10.70;77.40;;;;;;4935294;29;20064;-76
2022/01/11 12:04:09;;;;;;;14.68;10.63;;;10.70;77.40;;;;;;4935202;29;20806;-76
2022/01/11 12:06:34;;;;;;;13.65;10.30;;;10.60;77.30;;;;;;4952736;29;20019;-76
2022/01/11 12:09:04;;;;;;;13.38;10.02;;;10.70;77.30;;;;;;4935738;29;20020;-75
2022/01/11 12:11:40;;;;;;;13.25;9.38;;;10.70;77.30;;;;;;4935609;29;20434;-75
2022/01/11 12:14:06;;;;;;;13.48;8.95;;;10.70;77.30;;;;;;4935720;29;20023;-78
2022/01/11 12:16:36;;;;;;;13.32;9.77;;;10.70;77.30;;;;;;4935417;29;20393;-75
2022/01/11 12:19:12;;;;;;;13.05;8.98;;;10.70;77.40;;;;;;4952898;29;20019;-75
2022/01/11 12:21:44;;;;;;;12.05;8.63;;;10.70;77.30;;;;;;4952668;29;20482;-79
2022/01/11 12:24:10;;;;;;;13.10;8.77;;;10.70;77.30;;;;;;4952700;29;20427;-74
2022/01/11 12:26:37;;;;;;;13.05;8.35;;;10.70;77.30;;;;;;4952538;29;20027;-74
2022/01/11 12:29:02;;;;;;;11.43;8.38;;;10.70;77.30;;;;;;4935039;29;20490;-76
2022/01/11 12:31:31;;;;;;;12.15;7.85;;;10.70;77.40;;;;;;4952375;29;20062;-74
2022/01/11 12:33:57;;;;;;;11.35;7.82;;;10.70;77.30;;;;;;4952314;29;20027;-75
2022/01/11 12:36:56;;;;;;;10.75;7.53;;;10.60;77.20;;;;;;4952383;29;20098;-76
2022/01/11 12:39:26;;;;;;;11.27;7.57;;;10.60;77.30;;;;;;4935168;29;20035;-76
2022/01/11 12:41:54;;;;;;;10.57;6.82;;;10.60;77.40;;;;;;4951890;29;20019;-75
2022/01/11 12:44:27;;;;;;;12.02;6.68;;;10.60;77.40;;;;;;4935085;29;20035;-75